createdAt,value
2023-03-06T00:00:53.014Z,97562.38
2023-03-06T00:03:20.719Z,97559.00
2023-03-06T00:05:47.831Z,97565.84
2023-03-06T00:08:15.274Z,97563.28
2023-03-06T00:10:42.366Z,97564.97
2023-03-06T00:13:12.674Z,97551.97
2023-03-06T00:15:40.101Z,97550.28
2023-03-06T00:18:07.857Z,97543.16
2023-03-06T00:20:35.909Z,97548.28
2023-03-06T00:23:03.184Z,97541.13
2023-03-06T00:25:30.379Z,97562.00
2023-03-06T00:27:57.593Z,97529.72
2023-03-06T00:30:25.573Z,97566.13
2023-03-06T00:32:54.638Z,97530.50
2023-03-06T00:35:21.822Z,97560.06
2023-03-06T00:37:49.195Z,97549.72
2023-03-06T00:40:20.672Z,97558.28
2023-03-06T00:42:48.129Z,97553.81
2023-03-06T00:45:15.649Z,97524.19
2023-03-06T00:47:42.970Z,97533.63
2023-03-06T00:50:10.775Z,97560.56
2023-03-06T00:52:37.975Z,97546.44
2023-03-06T00:55:06.060Z,97549.91
2023-03-06T00:57:33.247Z,97529.09
2023-03-06T01:00:00.254Z,97546.31
2023-03-06T01:02:27.413Z,97555.94
2023-03-06T01:04:55.125Z,97538.31
2023-03-06T01:07:22.385Z,97551.28
2023-03-06T01:09:50.741Z,97523.41
2023-03-06T01:12:17.724Z,97537.25
2023-03-06T01:14:44.784Z,97559.94
2023-03-06T01:17:11.845Z,97548.53
2023-03-06T01:19:39.021Z,97568.53
2023-03-06T01:22:06.024Z,97566.88
2023-03-06T01:24:33.036Z,97562.50
2023-03-06T01:27:00.116Z,97522.72
2023-03-06T01:29:27.255Z,97551.38
2023-03-06T01:31:54.310Z,97562.56
2023-03-06T01:34:21.551Z,97558.13
2023-03-06T01:36:48.745Z,97556.13
2023-03-06T01:39:16.073Z,97581.16
2023-03-06T01:41:43.269Z,97576.78
2023-03-06T01:44:16.601Z,97581.03
2023-03-06T01:46:45.029Z,97561.97
2023-03-06T01:49:23.057Z,97576.63
2023-03-06T01:52:01.949Z,97574.91
2023-03-06T01:54:32.954Z,97534.94
2023-03-06T01:57:12.231Z,97592.19
2023-03-06T01:59:42.570Z,97552.34
2023-03-06T02:02:12.248Z,97581.03
2023-03-06T02:04:41.285Z,97573.13
2023-03-06T02:07:09.376Z,97585.41
2023-03-06T02:09:38.140Z,97589.75
2023-03-06T02:12:11.340Z,97586.28
2023-03-06T02:14:39.424Z,97560.97
2023-03-06T02:17:08.865Z,97516.72
2023-03-06T02:20:09.904Z,97574.16
2023-03-06T02:22:46.186Z,97553.22
2023-03-06T02:25:28.619Z,97587.13
2023-03-06T02:27:56.698Z,97575.97
2023-03-06T02:30:26.881Z,97579.47
2023-03-06T02:32:54.676Z,97587.13
2023-03-06T02:35:27.495Z,97576.84
2023-03-06T02:37:57.588Z,97560.50
2023-03-06T02:40:25.874Z,97540.25
2023-03-06T02:42:56.942Z,97577.84
2023-03-06T02:45:48.758Z,97577.00
2023-03-06T02:48:17.308Z,97577.00
2023-03-06T02:50:46.399Z,97564.28
2023-03-06T02:53:15.664Z,97568.53
2023-03-06T02:55:42.923Z,97575.41
2023-03-06T02:58:10.786Z,97564.97
2023-03-06T03:00:40.119Z,97557.13
2023-03-06T03:03:09.406Z,97581.50
2023-03-06T03:05:36.485Z,97573.66
2023-03-06T03:08:13.675Z,97536.44
2023-03-06T03:10:40.758Z,97554.63
2023-03-06T03:13:07.909Z,97557.28
2023-03-06T03:15:35.714Z,97504.22
2023-03-06T03:18:03.606Z,97540.78
2023-03-06T03:20:31.713Z,97576.50
2023-03-06T03:22:59.038Z,97577.38
2023-03-06T03:25:27.925Z,97577.34
2023-03-06T03:27:57.670Z,97580.84
2023-03-06T03:30:25.681Z,97570.44
2023-03-06T03:32:52.890Z,97586.91
2023-03-06T03:35:20.037Z,97544.50
2023-03-06T03:37:47.568Z,97574.84
2023-03-06T03:40:15.146Z,97555.84
2023-03-06T03:42:42.295Z,97581.06
2023-03-06T03:45:10.927Z,97563.69
2023-03-06T03:47:38.140Z,97588.91
2023-03-06T03:50:06.690Z,97575.03
2023-03-06T03:52:33.730Z,97558.47
2023-03-06T03:55:00.876Z,97593.31
2023-03-06T03:57:30.590Z,97558.69
2023-03-06T03:59:58.794Z,97571.66
2023-03-06T04:02:40.790Z,97590.00
2023-03-06T04:05:20.210Z,97553.69
2023-03-06T04:07:48.579Z,97582.28
2023-03-06T04:10:16.265Z,97590.03
2023-03-06T04:12:43.912Z,97588.41
2023-03-06T04:15:12.161Z,97585.78
2023-03-06T04:17:40.225Z,97579.84
2023-03-06T04:20:12.290Z,97560.66
2023-03-06T04:22:39.646Z,97588.53
2023-03-06T04:25:07.267Z,97586.88
2023-03-06T04:27:36.253Z,97575.66
2023-03-06T04:30:05.477Z,97573.94
2023-03-06T04:32:33.300Z,97582.69
2023-03-06T04:35:02.656Z,97577.66
2023-03-06T04:37:35.322Z,97569.75
2023-03-06T04:40:02.627Z,97562.78
2023-03-06T04:42:30.500Z,97569.88
2023-03-06T04:44:57.627Z,97566.28
2023-03-06T04:47:25.393Z,97567.22
2023-03-06T04:49:52.699Z,97561.16
2023-03-06T04:52:19.632Z,97581.13
2023-03-06T04:54:46.638Z,97566.28
2023-03-06T04:57:14.310Z,97583.84
2023-03-06T04:59:41.348Z,97556.00
2023-03-06T05:02:08.605Z,97575.13
2023-03-06T05:04:35.658Z,97589.09
2023-03-06T05:07:02.686Z,97556.25
2023-03-06T05:09:29.678Z,97584.91
2023-03-06T05:11:56.702Z,97557.16
2023-03-06T05:14:23.784Z,97567.66
2023-03-06T05:16:50.945Z,97603.91
2023-03-06T05:19:18.127Z,97568.53
2023-03-06T05:21:45.392Z,97602.22
2023-03-06T05:24:12.567Z,97571.84
2023-03-06T05:26:39.610Z,97594.53
2023-03-06T05:29:07.000Z,97584.06
2023-03-06T05:31:34.034Z,97601.56
2023-03-06T05:34:01.189Z,97579.09
2023-03-06T05:36:28.204Z,97585.16
2023-03-06T05:38:55.222Z,97585.22
2023-03-06T05:41:22.275Z,97612.75
2023-03-06T05:43:49.484Z,97587.69
2023-03-06T05:46:16.604Z,97573.84
2023-03-06T05:48:45.311Z,97610.19
2023-03-06T05:51:13.710Z,97593.00
2023-03-06T05:53:40.858Z,97612.19
2023-03-06T05:56:11.344Z,97615.59
2023-03-06T05:58:39.145Z,97624.25
2023-03-06T06:01:16.582Z,97620.91
2023-03-06T06:03:44.878Z,97554.09
2023-03-06T06:06:14.554Z,97606.31
2023-03-06T06:08:42.392Z,97574.22
2023-03-06T06:11:11.710Z,97622.81
2023-03-06T06:13:39.580Z,97562.19
2023-03-06T06:16:11.818Z,97628.22
2023-03-06T06:18:41.108Z,97634.19
2023-03-06T06:21:10.642Z,97617.91
2023-03-06T06:23:37.861Z,97597.94
2023-03-06T06:26:07.360Z,97564.13
2023-03-06T06:28:34.515Z,97623.16
2023-03-06T06:31:07.125Z,97598.03
2023-03-06T06:33:34.207Z,97583.44
2023-03-06T06:36:01.321Z,97594.78
2023-03-06T06:38:28.365Z,97605.19
2023-03-06T06:41:29.156Z,97607.88
2023-03-06T06:43:42.875Z,97571.38
2023-03-06T06:46:32.337Z,97552.31
2023-03-06T06:48:56.955Z,97602.78
2023-03-06T06:51:24.599Z,97531.56
2023-03-06T06:53:55.656Z,97567.16
2023-03-06T06:56:28.695Z,97585.22
2023-03-06T06:59:15.710Z,97528.13
2023-03-06T07:01:42.946Z,97608.13
2023-03-06T07:04:15.201Z,97634.97
2023-03-06T07:06:42.942Z,97613.38
2023-03-06T07:09:10.138Z,97634.22
2023-03-06T07:11:38.589Z,97609.03
2023-03-06T07:14:06.154Z,97636.94
2023-03-06T07:16:33.455Z,97609.06
2023-03-06T07:19:00.682Z,97575.47
2023-03-06T07:21:27.988Z,97617.13
2023-03-06T07:23:57.631Z,97604.00
2023-03-06T07:26:26.218Z,97643.19
2023-03-06T07:28:57.554Z,97645.09
2023-03-06T07:31:27.429Z,97643.72
2023-03-06T07:33:55.269Z,97595.88
2023-03-06T07:36:23.913Z,97620.19
2023-03-06T07:38:50.927Z,97634.97
2023-03-06T07:41:21.876Z,97615.97
2023-03-06T07:43:50.382Z,97656.03
2023-03-06T07:46:17.803Z,97638.63
2023-03-06T07:48:44.938Z,97621.28
2023-03-06T07:51:21.449Z,97659.75
2023-03-06T07:53:49.538Z,97632.00
2023-03-06T07:56:16.721Z,97661.41
2023-03-06T07:58:46.250Z,97656.38
2023-03-06T08:01:19.891Z,97662.41
2023-03-06T08:03:50.228Z,97651.81
2023-03-06T08:06:23.063Z,97664.66
2023-03-06T08:08:51.839Z,97663.81
2023-03-06T08:11:21.672Z,97642.97
2023-03-06T08:13:49.233Z,97661.03
2023-03-06T08:16:17.646Z,97653.38
2023-03-06T08:18:46.333Z,97648.06
2023-03-06T08:21:16.166Z,97637.69
2023-03-06T08:23:44.054Z,97652.53
2023-03-06T08:26:33.050Z,97665.38
2023-03-06T08:29:01.998Z,97633.19
2023-03-06T08:31:33.785Z,97671.25
2023-03-06T08:34:04.264Z,97667.72
2023-03-06T08:36:31.584Z,97625.25
2023-03-06T08:38:58.886Z,97667.09
2023-03-06T08:41:26.398Z,97613.34
2023-03-06T08:43:53.422Z,97641.88
2023-03-06T08:46:23.682Z,97673.16
2023-03-06T08:48:50.972Z,97680.19
2023-03-06T08:51:18.571Z,97675.94
2023-03-06T08:53:46.292Z,97672.59
2023-03-06T08:56:39.684Z,97672.72
2023-03-06T08:59:07.181Z,97666.56
2023-03-06T09:01:36.843Z,97672.53
2023-03-06T09:04:07.675Z,97682.03
2023-03-06T09:06:39.027Z,97675.88
2023-03-06T09:09:07.322Z,97676.81
2023-03-06T09:11:34.599Z,97668.03
2023-03-06T09:14:01.744Z,97648.16
2023-03-06T09:16:28.823Z,97678.75
2023-03-06T09:18:55.898Z,97639.88
2023-03-06T09:21:23.495Z,97690.47
2023-03-06T09:23:50.888Z,97659.38
2023-03-06T09:26:18.748Z,97679.56
2023-03-06T09:28:46.888Z,97664.91
2023-03-06T09:31:19.806Z,97692.06
2023-03-06T09:33:47.627Z,97675.47
2023-03-06T09:36:18.596Z,97699.56
2023-03-06T09:38:48.009Z,97705.34
2023-03-06T09:41:40.513Z,97682.50
2023-03-06T09:44:14.618Z,97697.22
2023-03-06T09:46:44.669Z,97699.81
2023-03-06T09:49:30.503Z,97708.66
2023-03-06T09:52:51.896Z,97707.25
2023-03-06T09:55:21.644Z,97681.16
2023-03-06T09:57:58.819Z,97704.50
2023-03-06T10:00:32.690Z,97694.22
2023-03-06T10:03:27.622Z,97714.06
2023-03-06T10:06:12.976Z,97670.59
2023-03-06T10:08:55.593Z,97687.81
2023-03-06T10:11:28.098Z,97689.47
2023-03-06T10:14:14.243Z,97691.25
2023-03-06T10:16:41.639Z,97708.59
2023-03-06T10:19:19.946Z,97577.41
2023-03-06T10:22:14.247Z,97702.53
2023-03-06T10:24:58.095Z,97687.75
2023-03-06T10:27:37.769Z,97680.88
2023-03-06T10:30:29.483Z,97711.25
2023-03-06T10:33:18.091Z,97715.50
2023-03-06T10:35:51.716Z,97729.13
2023-03-06T10:38:20.356Z,97734.19
2023-03-06T10:41:19.983Z,97727.22
2023-03-06T10:44:05.218Z,97720.47
2023-03-06T10:46:44.381Z,97721.19
2023-03-06T10:49:14.433Z,97720.34
2023-03-06T10:51:57.007Z,97682.13
2023-03-06T10:54:24.584Z,97727.22
2023-03-06T10:56:51.814Z,97714.28
2023-03-06T10:59:20.255Z,97718.69
2023-03-06T11:01:50.653Z,97694.44
2023-03-06T11:04:33.606Z,97696.97
2023-03-06T11:07:21.048Z,97729.16
2023-03-06T11:09:57.395Z,97727.56
2023-03-06T11:12:36.712Z,97725.84
2023-03-06T11:15:18.500Z,97718.81
2023-03-06T11:17:51.289Z,97734.19
2023-03-06T11:20:23.377Z,97736.47
2023-03-06T11:22:56.713Z,97701.72
2023-03-06T11:25:30.892Z,97691.94
2023-03-06T11:28:08.642Z,97742.06
2023-03-06T11:30:43.198Z,97702.78
2023-03-06T11:33:35.436Z,97715.75
2023-03-06T11:36:23.443Z,97745.25
2023-03-06T11:38:53.727Z,97705.63
2023-03-06T11:41:39.533Z,97742.50
2023-03-06T11:44:21.173Z,97741.06
2023-03-06T11:46:54.059Z,97692.66
2023-03-06T11:49:47.339Z,97737.72
2023-03-06T11:52:31.108Z,97728.63
2023-03-06T11:54:58.343Z,97711.78
2023-03-06T11:57:39.943Z,97723.44
2023-03-06T12:00:17.267Z,97740.75
2023-03-06T12:03:03.389Z,97744.19
2023-03-06T12:05:59.600Z,97750.78
2023-03-06T12:08:48.719Z,97742.78
2023-03-06T12:11:23.322Z,97721.94
2023-03-06T12:14:28.697Z,97711.31
2023-03-06T12:17:05.848Z,97744.31
2023-03-06T12:19:52.260Z,97699.28
2023-03-06T12:22:29.138Z,97732.31
2023-03-06T12:25:04.204Z,97746.19
2023-03-06T12:27:54.350Z,97748.78
2023-03-06T12:30:39.528Z,97751.28
2023-03-06T12:33:24.645Z,97746.47
2023-03-06T12:36:13.018Z,97760.75
2023-03-06T12:39:04.605Z,97760.84
2023-03-06T12:42:11.444Z,97752.78
2023-03-06T12:44:47.833Z,97755.19
2023-03-06T12:47:20.306Z,97746.94
2023-03-06T12:50:04.180Z,97767.50
2023-03-06T12:52:34.134Z,97754.94
2023-03-06T12:55:07.088Z,97761.72
2023-03-06T12:57:34.163Z,97739.91
2023-03-06T13:00:01.243Z,97729.13
2023-03-06T13:02:37.249Z,97768.09
2023-03-06T13:05:38.056Z,97766.25
2023-03-06T13:08:20.662Z,97768.69
2023-03-06T13:11:21.962Z,97757.41
2023-03-06T13:13:49.669Z,97753.53
2023-03-06T13:16:40.596Z,97745.69
2023-03-06T13:22:33.536Z,97766.09
2023-03-06T13:28:59.016Z,97786.31
2023-03-06T13:31:36.352Z,97777.63
2023-03-06T13:34:33.633Z,97780.84
2023-03-06T13:43:27.879Z,97769.84
2023-03-06T13:46:27.565Z,97786.31
2023-03-06T13:49:22.586Z,97786.31
2023-03-06T13:52:30.020Z,97804.66
2023-03-06T13:55:13.690Z,97808.97
2023-03-06T13:57:40.605Z,97808.84
2023-03-06T14:00:33.901Z,97807.94
2023-03-06T14:03:15.467Z,97805.31
2023-03-06T14:05:47.980Z,97803.59
2023-03-06T14:08:17.764Z,97811.25
2023-03-06T14:10:47.820Z,97812.97
2023-03-06T14:13:20.373Z,97821.41
2023-03-06T14:15:53.359Z,97818.03
2023-03-06T14:18:42.483Z,97828.25
2023-03-06T14:21:16.105Z,97805.25
2023-03-06T14:23:47.596Z,97767.06
2023-03-06T14:26:22.092Z,97810.25
2023-03-06T14:28:52.693Z,97837.88
2023-03-06T14:31:29.789Z,97835.22
2023-03-06T14:34:05.415Z,97803.81
2023-03-06T14:36:43.502Z,97836.03
2023-03-06T14:39:21.566Z,97817.91
2023-03-06T14:41:49.351Z,97833.38
2023-03-06T14:44:22.531Z,97815.88
2023-03-06T14:46:57.944Z,97826.34
2023-03-06T14:49:26.065Z,97835.94
2023-03-06T14:51:56.002Z,97847.81
2023-03-06T14:54:37.038Z,97834.72
2023-03-06T14:57:09.122Z,97845.75
2023-03-06T14:59:51.835Z,97849.03
2023-03-06T15:02:23.552Z,97860.25
2023-03-06T15:05:00.470Z,97871.28
2023-03-06T15:07:30.923Z,97864.31
2023-03-06T15:09:59.436Z,97876.22
2023-03-06T15:12:33.995Z,97875.38
2023-03-06T15:15:23.630Z,97875.38
2023-03-06T15:17:50.590Z,97888.94
2023-03-06T15:20:41.365Z,97895.69
2023-03-06T15:23:25.722Z,97895.63
2023-03-06T15:26:00.952Z,97894.59
2023-03-06T15:28:35.521Z,97897.91
2023-03-06T15:31:22.551Z,97896.16
2023-03-06T15:34:07.890Z,97905.59
2023-03-06T15:36:40.536Z,97897.75
2023-03-06T15:39:44.400Z,97908.03
2023-03-06T15:42:23.525Z,97901.06
2023-03-06T15:44:55.480Z,97901.94
2023-03-06T15:47:23.582Z,97909.41
2023-03-06T15:49:53.257Z,97884.13
2023-03-06T15:52:21.550Z,97909.44
2023-03-06T15:54:48.902Z,97916.34
2023-03-06T15:57:25.083Z,97902.38
2023-03-06T15:59:52.759Z,97926.63
2023-03-06T16:02:21.718Z,97930.88
2023-03-06T16:04:49.518Z,97919.75
2023-03-06T16:07:16.966Z,97924.91
2023-03-06T16:09:44.541Z,97938.59
2023-03-06T16:12:20.560Z,97931.78
2023-03-06T16:14:48.805Z,97931.63
2023-03-06T16:17:22.027Z,97940.19
2023-03-06T16:19:49.496Z,97947.13
2023-03-06T16:22:16.507Z,97943.53
2023-03-06T16:24:43.546Z,97949.56
2023-03-06T16:27:18.926Z,97947.94
2023-03-06T16:29:47.481Z,97959.19
2023-03-06T16:35:24.477Z,97966.91
2023-03-06T16:41:08.574Z,97910.41
2023-03-06T16:43:35.691Z,97959.25
2023-03-06T16:46:07.681Z,97967.16
2023-03-06T16:48:34.765Z,97962.13
2023-03-06T16:51:01.907Z,97973.38
2023-03-06T16:53:28.936Z,97976.97
2023-03-06T16:55:56.002Z,97982.13
2023-03-06T16:58:23.004Z,97989.75
2023-03-06T17:00:50.367Z,97969.78
2023-03-06T17:03:17.954Z,97986.38
2023-03-06T17:05:45.162Z,97970.25
2023-03-06T17:08:12.410Z,97959.59
2023-03-06T17:10:41.430Z,97990.84
2023-03-06T17:13:08.824Z,97982.19
2023-03-06T17:15:35.865Z,98003.69
2023-03-06T17:18:02.974Z,98001.19
2023-03-06T17:20:30.059Z,97990.63
2023-03-06T17:22:57.097Z,97975.69
2023-03-06T17:25:24.376Z,98000.94
2023-03-06T17:27:51.308Z,97995.63
2023-03-06T17:30:18.541Z,98003.44
2023-03-06T17:32:45.590Z,98005.97
2023-03-06T17:35:12.531Z,97997.28
2023-03-06T17:37:39.685Z,98006.59
2023-03-06T17:40:10.243Z,98011.03
2023-03-06T17:42:37.258Z,98016.13
2023-03-06T17:45:05.346Z,98014.53
2023-03-06T17:47:32.599Z,98017.97
2023-03-06T17:49:59.640Z,98024.94
2023-03-06T17:52:26.754Z,98024.84
2023-03-06T17:54:53.744Z,98023.19
2023-03-06T17:57:20.782Z,98033.50
2023-03-06T17:59:48.852Z,98042.13
2023-03-06T18:02:16.496Z,98005.66
2023-03-06T18:04:43.526Z,98034.22
2023-03-06T18:07:11.028Z,98020.25
2023-03-06T18:09:38.669Z,98044.47
2023-03-06T18:12:05.815Z,98048.66
2023-03-06T18:14:32.789Z,98050.31
2023-03-06T18:17:00.203Z,98022.41
2023-03-06T18:19:27.330Z,98053.66
2023-03-06T18:21:57.014Z,98024.97
2023-03-06T18:24:27.724Z,98041.38
2023-03-06T18:26:55.067Z,98053.28
2023-03-06T18:29:25.391Z,98028.63
2023-03-06T18:31:53.372Z,98053.00
2023-03-06T18:37:12.920Z,98050.84
2023-03-06T18:39:40.070Z,98037.66
2023-03-06T18:42:07.615Z,98033.97
2023-03-06T18:44:35.145Z,98063.41
2023-03-06T18:47:02.070Z,98069.25
2023-03-06T18:49:29.028Z,98057.34
2023-03-06T18:51:56.074Z,98048.34
2023-03-06T18:54:28.524Z,98042.91
2023-03-06T18:56:55.715Z,98073.03
2023-03-06T18:59:23.610Z,98050.03
2023-03-06T19:01:57.605Z,98061.09
2023-03-06T19:04:25.839Z,98078.28
2023-03-06T19:06:54.632Z,98082.47
2023-03-06T19:09:25.786Z,98083.19
2023-03-06T19:11:54.833Z,98038.47
2023-03-06T19:14:21.891Z,98075.09
2023-03-06T19:16:48.889Z,98076.06
2023-03-06T19:19:41.154Z,98081.13
2023-03-06T19:22:08.114Z,98077.41
2023-03-06T19:24:35.109Z,98093.63
2023-03-06T19:27:02.125Z,98087.44
2023-03-06T19:29:29.066Z,98094.13
2023-03-06T19:31:57.287Z,98068.88
2023-03-06T19:34:24.592Z,98093.97
2023-03-06T19:36:51.525Z,98087.00
2023-03-06T19:39:18.556Z,98083.53
2023-03-06T19:41:47.401Z,98072.94
2023-03-06T19:44:16.381Z,98090.31
2023-03-06T19:46:43.708Z,98087.50
2023-03-06T19:49:17.025Z,98091.03
2023-03-06T19:51:44.580Z,98086.69
2023-03-06T19:54:12.749Z,98084.81
2023-03-06T19:56:40.265Z,98100.13
2023-03-06T19:59:07.329Z,98092.50
2023-03-06T20:01:34.500Z,98078.19
2023-03-06T20:04:01.776Z,98096.63
2023-03-06T20:06:33.728Z,98082.47
2023-03-06T20:09:02.528Z,98082.53
2023-03-06T20:11:30.142Z,98086.78
2023-03-06T20:14:02.927Z,98097.06
2023-03-06T20:16:31.319Z,98097.84
2023-03-06T20:19:00.418Z,98109.06
2023-03-06T20:21:30.236Z,98111.56
2023-03-06T20:23:58.365Z,98114.19
2023-03-06T20:26:28.943Z,98105.69
2023-03-06T20:28:56.892Z,98103.06
2023-03-06T20:31:26.214Z,98092.50
2023-03-06T20:33:55.241Z,98108.28
2023-03-06T20:36:25.335Z,98110.84
2023-03-06T20:38:52.287Z,98095.16
2023-03-06T20:41:23.363Z,98106.69
2023-03-06T20:43:51.323Z,98092.81
2023-03-06T20:46:19.281Z,98120.34
2023-03-06T20:48:49.548Z,98117.78
2023-03-06T20:51:17.913Z,98109.19
2023-03-06T20:53:45.860Z,98105.63
2023-03-06T20:56:14.766Z,98107.53
2023-03-06T20:58:41.692Z,98092.72
2023-03-06T21:01:08.711Z,98117.88
2023-03-06T21:03:35.723Z,98119.50
2023-03-06T21:06:02.776Z,98110.00
2023-03-06T21:08:31.493Z,98109.94
2023-03-06T21:10:58.461Z,98120.34
2023-03-06T21:13:25.384Z,98082.00
2023-03-06T21:15:52.625Z,98078.59
2023-03-06T21:18:19.521Z,98117.72
2023-03-06T21:20:46.395Z,98125.47
2023-03-06T21:23:13.401Z,98115.19
2023-03-06T21:25:51.482Z,98113.34
2023-03-06T21:28:19.116Z,98127.22
2023-03-06T21:30:46.672Z,98121.19
2023-03-06T21:33:14.001Z,98127.22
2023-03-06T21:35:42.099Z,98120.34
2023-03-06T21:38:09.781Z,98111.56
2023-03-06T21:40:37.530Z,98123.81
2023-03-06T21:43:04.942Z,98071.50
2023-03-06T21:45:32.507Z,98124.78
2023-03-06T21:48:00.296Z,98113.34
2023-03-06T21:50:28.110Z,98111.56
2023-03-06T21:52:56.630Z,98092.59
2023-03-06T21:55:23.665Z,98092.81
2023-03-06T21:57:53.086Z,98118.69
2023-03-06T22:00:23.213Z,98129.34
2023-03-06T22:02:50.265Z,98135.53
2023-03-06T22:05:17.244Z,98136.41
2023-03-06T22:07:44.577Z,98135.53
2023-03-06T22:10:14.421Z,98120.06
2023-03-06T22:12:42.218Z,98134.69
2023-03-06T22:15:09.852Z,98121.13
2023-03-06T22:17:36.912Z,98123.56
2023-03-06T22:20:04.511Z,98127.13
2023-03-06T22:22:31.694Z,98120.88
2023-03-06T22:24:58.706Z,98131.41
2023-03-06T22:27:25.729Z,98127.13
2023-03-06T22:29:53.311Z,98134.00
2023-03-06T22:32:20.647Z,98129.88
2023-03-06T22:34:47.675Z,98124.63
2023-03-06T22:37:14.556Z,98133.34
2023-03-06T22:39:41.490Z,98121.00
2023-03-06T22:42:08.372Z,98099.59
2023-03-06T22:44:35.521Z,98134.38
2023-03-06T22:47:02.479Z,98123.19
2023-03-06T22:49:29.471Z,98131.94
2023-03-06T22:51:56.462Z,98124.06
2023-03-06T22:54:23.399Z,98130.91
2023-03-06T22:56:50.316Z,98127.72
2023-03-06T22:59:17.376Z,98104.91
2023-03-06T23:01:44.352Z,98126.16
2023-03-06T23:04:11.501Z,98111.28
2023-03-06T23:06:40.908Z,98137.41
2023-03-06T23:09:14.803Z,98128.09
2023-03-06T23:12:00.241Z,98134.19
2023-03-06T23:14:49.768Z,98123.16
2023-03-06T23:17:36.442Z,98114.22
2023-03-06T23:20:22.498Z,98118.66
2023-03-06T23:23:08.252Z,98120.50
2023-03-06T23:25:41.618Z,98109.84
2023-03-06T23:28:08.598Z,98118.72
2023-03-06T23:30:38.020Z,98119.59
2023-03-06T23:33:05.278Z,98115.13
2023-03-06T23:35:33.689Z,98118.84
2023-03-06T23:38:02.476Z,98105.81
2023-03-06T23:40:31.592Z,98122.31
2023-03-06T23:42:58.446Z,98111.28
2023-03-06T23:45:25.487Z,98114.56
2023-03-06T23:47:52.510Z,98093.53
2023-03-06T23:50:19.719Z,98111.94
2023-03-06T23:52:46.705Z,98115.63
2023-03-06T23:55:14.147Z,98106.91
2023-03-06T23:57:41.123Z,98108.75
